createdAt,value
2022-10-19T00:00:28.450Z,102204.53
2022-10-19T00:03:31.269Z,102195.38
2022-10-19T00:06:35.589Z,102193.63
2022-10-19T00:09:39.875Z,102191.94
2022-10-19T00:12:42.577Z,102201.19
2022-10-19T00:15:46.319Z,102197.00
2022-10-19T00:18:49.017Z,102199.50
2022-10-19T00:21:52.111Z,102200.41
2022-10-19T00:24:57.612Z,102205.41
2022-10-19T00:28:00.165Z,102216.94
2022-10-19T00:31:04.867Z,102201.59
2022-10-19T00:34:07.659Z,102210.25
2022-10-19T00:37:10.260Z,102211.41
2022-10-19T00:40:14.576Z,102220.84
2022-10-19T00:43:18.909Z,102218.00
2022-10-19T00:46:21.680Z,102216.31
2022-10-19T00:49:27.981Z,102215.84
2022-10-19T00:52:31.457Z,102210.50
2022-10-19T00:55:36.124Z,102209.59
2022-10-19T00:58:39.402Z,102207.06
2022-10-19T01:01:45.282Z,102202.78
2022-10-19T01:04:51.732Z,102197.19
2022-10-19T01:07:55.300Z,102200.59
2022-10-19T01:11:14.375Z,102198.03
2022-10-19T01:14:34.763Z,102201.25
2022-10-19T01:17:49.203Z,102195.69
2022-10-19T01:21:09.427Z,102179.78
2022-10-19T01:24:43.731Z,102183.84
2022-10-19T01:28:02.414Z,102181.78
2022-10-19T01:31:14.176Z,102184.84
2022-10-19T01:34:24.239Z,102190.41
2022-10-19T01:37:35.360Z,102190.19
2022-10-19T01:40:46.096Z,102190.34
2022-10-19T01:43:58.284Z,102181.03
2022-10-19T01:47:07.878Z,102181.94
2022-10-19T01:50:17.009Z,102177.59
2022-10-19T01:53:21.718Z,102181.34
2022-10-19T01:56:28.198Z,102180.25
2022-10-19T01:59:32.786Z,102172.56
2022-10-19T02:02:39.962Z,102177.94
2022-10-19T02:05:44.049Z,102175.06
2022-10-19T02:08:49.222Z,102173.09
2022-10-19T02:11:57.249Z,102169.72
2022-10-19T02:15:04.158Z,102181.34
2022-10-19T02:18:09.297Z,102166.03
2022-10-19T02:21:12.133Z,102172.41
2022-10-19T02:24:14.652Z,102173.69
2022-10-19T02:27:19.100Z,102177.28
2022-10-19T02:30:22.438Z,102177.22
2022-10-19T02:33:26.970Z,102176.16
2022-10-19T02:36:29.904Z,102172.25
2022-10-19T02:39:32.926Z,102170.09
2022-10-19T02:42:40.733Z,102171.84
2022-10-19T02:45:48.939Z,102175.59
2022-10-19T02:48:53.357Z,102181.28
2022-10-19T02:51:59.202Z,102176.44
2022-10-19T02:55:01.739Z,102168.19
2022-10-19T02:58:04.440Z,102175.78
2022-10-19T03:01:07.309Z,102180.81
2022-10-19T03:04:11.464Z,102178.78
2022-10-19T03:07:16.375Z,102176.69
2022-10-19T03:10:18.945Z,102178.97
2022-10-19T03:13:21.646Z,102168.56
2022-10-19T03:16:24.188Z,102175.44
2022-10-19T03:19:28.366Z,102179.78
2022-10-19T03:22:31.068Z,102181.28
2022-10-19T03:25:33.620Z,102189.75
2022-10-19T03:28:36.345Z,102186.38
2022-10-19T03:31:38.914Z,102196.28
2022-10-19T03:34:42.943Z,102190.34
2022-10-19T03:37:45.719Z,102197.75
2022-10-19T03:40:48.270Z,102207.97
2022-10-19T03:43:51.020Z,102196.06
2022-10-19T03:46:53.904Z,102201.50
2022-10-19T03:49:57.855Z,102193.03
2022-10-19T03:53:00.479Z,102200.75
2022-10-19T03:56:05.094Z,102196.69
2022-10-19T03:59:08.506Z,102201.78
2022-10-19T04:02:11.069Z,102206.25
2022-10-19T04:05:15.118Z,102211.34
2022-10-19T04:08:17.850Z,102217.38
2022-10-19T04:11:23.308Z,102218.09
2022-10-19T04:14:32.149Z,102216.09
2022-10-19T04:17:35.785Z,102220.56
2022-10-19T04:20:42.846Z,102225.41
2022-10-19T04:23:45.524Z,102232.34
2022-10-19T04:26:50.122Z,102228.06
2022-10-19T04:29:52.794Z,102234.97
2022-10-19T04:32:55.328Z,102232.44
2022-10-19T04:36:00.911Z,102241.28
2022-10-19T04:39:03.695Z,102245.25
2022-10-19T04:42:06.283Z,102245.03
2022-10-19T04:45:09.722Z,102242.97
2022-10-19T04:48:15.004Z,102253.38
2022-10-19T04:51:19.939Z,102252.75
2022-10-19T04:54:22.736Z,102256.94
2022-10-19T04:57:25.287Z,102255.56
2022-10-19T05:00:27.983Z,102253.00
2022-10-19T05:03:30.683Z,102248.38
2022-10-19T05:06:34.635Z,102249.00
2022-10-19T05:09:40.408Z,102254.66
2022-10-19T05:12:42.996Z,102252.66
2022-10-19T05:15:45.608Z,102257.56
2022-10-19T05:18:50.150Z,102260.72
2022-10-19T05:21:54.092Z,102269.09
2022-10-19T05:24:58.176Z,102264.88
2022-10-19T05:28:00.942Z,102260.81
2022-10-19T05:31:08.831Z,102262.94
2022-10-19T05:34:11.467Z,102267.00
2022-10-19T05:37:17.210Z,102268.97
2022-10-19T05:40:19.853Z,102263.72
2022-10-19T05:43:22.435Z,102263.91
2022-10-19T05:46:26.613Z,102273.75
2022-10-19T05:49:29.453Z,102278.38
2022-10-19T05:52:33.393Z,102273.50
2022-10-19T05:55:36.704Z,102273.88
2022-10-19T05:58:39.491Z,102270.06
2022-10-19T06:01:42.283Z,102275.63
2022-10-19T06:04:44.994Z,102283.41
2022-10-19T06:07:48.953Z,102288.88
2022-10-19T06:10:51.859Z,102286.41
2022-10-19T06:13:56.308Z,102286.53
2022-10-19T06:16:58.903Z,102290.44
2022-10-19T06:20:01.439Z,102298.13
2022-10-19T06:23:06.200Z,102295.59
2022-10-19T06:26:11.000Z,102294.25
2022-10-19T06:29:13.596Z,102296.47
2022-10-19T06:32:16.525Z,102301.31
2022-10-19T06:35:19.461Z,102308.31
2022-10-19T06:38:23.399Z,102301.91
2022-10-19T06:41:26.100Z,102298.47
2022-10-19T06:44:28.693Z,102307.06
2022-10-19T06:47:33.277Z,102295.91
2022-10-19T06:50:36.479Z,102297.59
2022-10-19T06:53:40.393Z,102307.06
2022-10-19T06:56:42.983Z,102307.38
2022-10-19T06:59:46.530Z,102305.16
2022-10-19T07:02:50.682Z,102307.28
2022-10-19T07:05:57.154Z,102309.06
2022-10-19T07:09:02.726Z,102307.06
2022-10-19T07:12:05.478Z,102308.16
2022-10-19T07:15:08.938Z,102308.66
2022-10-19T07:18:11.520Z,102310.19
2022-10-19T07:21:16.042Z,102320.31
2022-10-19T07:24:20.783Z,102320.97
2022-10-19T07:27:23.395Z,102333.00
2022-10-19T07:30:26.011Z,102339.19
2022-10-19T07:33:28.912Z,102338.81
2022-10-19T07:36:33.242Z,102341.00
2022-10-19T07:39:37.669Z,102336.25
2022-10-19T07:42:40.376Z,102345.22
2022-10-19T07:45:42.947Z,102347.31
2022-10-19T07:48:46.211Z,102346.25
2022-10-19T07:51:48.885Z,102340.59
2022-10-19T07:54:53.397Z,102352.94
2022-10-19T07:57:56.243Z,102347.44
2022-10-19T08:01:01.305Z,102343.00
2022-10-19T08:07:26.575Z,102361.94
2022-10-19T08:10:30.549Z,102359.53
2022-10-19T08:13:33.107Z,102354.25
2022-10-19T08:16:40.186Z,102365.81
2022-10-19T08:19:43.583Z,102371.41
2022-10-19T08:22:46.816Z,102373.66
2022-10-19T08:25:51.089Z,102375.63
2022-10-19T08:28:53.662Z,102378.03
2022-10-19T08:31:56.334Z,102381.19
2022-10-19T08:34:58.922Z,102374.25
2022-10-19T08:38:02.861Z,102378.41
2022-10-19T08:41:22.478Z,102375.50
2022-10-19T08:44:41.587Z,102381.88
2022-10-19T08:47:59.174Z,102384.84
2022-10-19T08:51:02.712Z,102378.94
2022-10-19T08:54:15.687Z,102380.38
2022-10-19T08:57:31.147Z,102386.66
2022-10-19T09:00:42.939Z,102379.22
2022-10-19T09:03:55.558Z,102382.94
2022-10-19T09:07:14.861Z,102380.31
2022-10-19T09:10:22.608Z,102386.06
2022-10-19T09:13:47.108Z,102381.09
2022-10-19T09:17:07.625Z,102382.84
2022-10-19T09:20:17.340Z,102392.91
2022-10-19T09:23:26.170Z,102395.56
2022-10-19T09:26:31.756Z,102396.91
2022-10-19T09:29:41.246Z,102394.50
2022-10-19T09:32:44.103Z,102409.53
2022-10-19T09:35:48.184Z,102403.28
2022-10-19T09:38:52.033Z,102407.41
2022-10-19T09:41:56.496Z,102408.25
2022-10-19T09:45:03.409Z,102404.38
2022-10-19T09:48:18.076Z,102415.28
2022-10-19T09:51:22.005Z,102416.50
2022-10-19T09:54:28.115Z,102417.19
2022-10-19T09:57:31.071Z,102423.78
2022-10-19T10:00:38.880Z,102427.31
2022-10-19T10:03:43.373Z,102428.06
2022-10-19T10:06:49.137Z,102422.34
2022-10-19T10:09:53.985Z,102421.06
2022-10-19T10:12:58.752Z,102418.53
2022-10-19T10:16:04.941Z,102418.34
2022-10-19T10:19:09.971Z,102411.81
2022-10-19T10:22:26.116Z,102413.72
2022-10-19T10:25:31.144Z,102417.38
2022-10-19T10:28:33.837Z,102424.28
2022-10-19T10:31:37.935Z,102428.16
2022-10-19T10:34:51.824Z,102428.13
2022-10-19T10:38:07.188Z,102428.22
2022-10-19T10:41:15.172Z,102422.47
2022-10-19T10:44:22.165Z,102422.53
2022-10-19T10:47:27.475Z,102421.97
2022-10-19T10:50:35.715Z,102420.09
2022-10-19T10:53:40.467Z,102425.97
2022-10-19T10:56:44.387Z,102416.22
2022-10-19T10:59:56.370Z,102419.66
2022-10-19T11:03:08.977Z,102424.13
2022-10-19T11:06:13.497Z,102411.19
2022-10-19T11:09:25.536Z,102407.94
2022-10-19T11:12:35.467Z,102408.16
2022-10-19T11:15:45.527Z,102406.03
2022-10-19T11:18:54.601Z,102406.78
2022-10-19T11:22:03.197Z,102417.69
2022-10-19T11:25:24.907Z,102420.66
2022-10-19T11:28:46.390Z,102425.16
2022-10-19T11:31:52.457Z,102410.78
2022-10-19T11:35:12.407Z,102410.13
2022-10-19T11:38:32.297Z,102405.81
2022-10-19T11:41:39.750Z,102397.69
2022-10-19T11:44:56.105Z,102394.25
2022-10-19T11:48:15.945Z,102381.47
2022-10-19T11:51:26.632Z,102372.91
2022-10-19T11:54:43.987Z,102390.34
2022-10-19T11:57:52.478Z,102389.03
2022-10-19T12:01:09.180Z,102388.50
2022-10-19T12:04:24.832Z,102383.78
2022-10-19T12:07:45.269Z,102378.78
2022-10-19T12:10:57.751Z,102378.16
2022-10-19T12:14:04.128Z,102378.25
2022-10-19T12:17:10.391Z,102378.09
2022-10-19T12:20:22.055Z,102380.06
2022-10-19T12:23:33.097Z,102373.78
2022-10-19T12:26:37.737Z,102374.22
2022-10-19T12:29:44.957Z,102382.13
2022-10-19T12:33:02.879Z,102387.78
2022-10-19T12:36:17.095Z,102388.16
2022-10-19T12:39:26.383Z,102384.75
2022-10-19T12:42:32.875Z,102384.00
2022-10-19T12:45:39.331Z,102377.09
2022-10-19T12:48:41.891Z,102377.72
2022-10-19T12:51:47.959Z,102370.03
2022-10-19T12:54:52.086Z,102363.38
2022-10-19T12:58:01.528Z,102361.22
2022-10-19T13:01:06.882Z,102365.53
2022-10-19T13:04:12.964Z,102368.97
2022-10-19T13:07:19.245Z,102359.13
2022-10-19T13:10:26.734Z,102362.47
2022-10-19T13:13:54.438Z,102350.63
2022-10-19T13:16:59.405Z,102354.34
2022-10-19T13:20:35.556Z,102359.22
2022-10-19T13:23:41.970Z,102356.19
2022-10-19T13:26:46.284Z,102345.91
2022-10-19T13:29:48.858Z,102341.16
2022-10-19T13:32:51.598Z,102342.38
2022-10-19T13:36:07.931Z,102336.25
2022-10-19T13:39:16.154Z,102334.84
2022-10-19T13:42:28.881Z,102334.66
2022-10-19T13:45:31.674Z,102333.13
2022-10-19T13:48:53.281Z,102340.53
2022-10-19T13:52:23.037Z,102329.22
2022-10-19T13:55:52.135Z,102340.13
2022-10-19T13:59:32.777Z,102331.91
2022-10-19T14:02:59.447Z,102333.16
2022-10-19T14:06:23.539Z,102332.88
2022-10-19T14:09:49.036Z,102327.28
2022-10-19T14:12:52.866Z,102326.88
2022-10-19T14:16:00.558Z,102325.97
2022-10-19T14:19:03.267Z,102316.72
2022-10-19T14:22:20.392Z,102318.69
2022-10-19T14:25:25.458Z,102318.09
2022-10-19T14:28:29.560Z,102315.81
2022-10-19T14:31:37.086Z,102314.94
2022-10-19T14:34:41.540Z,102315.44
2022-10-19T14:37:44.906Z,102315.44
2022-10-19T14:40:47.535Z,102316.16
2022-10-19T14:43:50.271Z,102313.31
2022-10-19T14:46:54.874Z,102317.06
2022-10-19T14:49:58.358Z,102316.13
2022-10-19T14:53:09.943Z,102314.09
2022-10-19T14:56:19.688Z,102303.88
2022-10-19T14:59:27.924Z,102303.06
2022-10-19T15:02:36.578Z,102306.06
2022-10-19T15:05:47.212Z,102317.13
2022-10-19T15:12:06.026Z,102307.44
2022-10-19T15:15:11.276Z,102298.53
2022-10-19T15:18:43.388Z,102295.91
2022-10-19T15:21:40.593Z,102294.13
2022-10-19T15:25:00.697Z,102304.81
2022-10-19T15:28:33.919Z,102303.50
2022-10-19T15:31:38.804Z,102308.56
2022-10-19T15:34:44.925Z,102302.88
2022-10-19T15:37:50.593Z,102309.28
2022-10-19T15:40:58.309Z,102318.50
2022-10-19T15:44:04.206Z,102314.31
2022-10-19T15:47:23.553Z,102321.50
2022-10-19T15:50:38.109Z,102318.72
2022-10-19T15:53:40.795Z,102311.75
2022-10-19T15:56:44.132Z,102320.38
2022-10-19T15:59:48.659Z,102322.25
2022-10-19T16:02:51.382Z,102323.28
2022-10-19T16:05:56.149Z,102316.22
2022-10-19T16:08:59.250Z,102328.28
2022-10-19T16:12:01.900Z,102332.66
2022-10-19T16:15:04.920Z,102325.53
2022-10-19T16:18:07.581Z,102329.91
2022-10-19T16:21:11.565Z,102342.31
2022-10-19T16:24:14.147Z,102340.31
2022-10-19T16:27:17.169Z,102338.31
2022-10-19T16:30:20.163Z,102346.34
2022-10-19T16:33:23.472Z,102344.81
2022-10-19T16:36:27.555Z,102348.69
2022-10-19T16:39:30.326Z,102345.41
2022-10-19T16:42:34.953Z,102347.13
2022-10-19T16:45:37.787Z,102347.44
2022-10-19T16:48:40.388Z,102355.09
2022-10-19T16:51:44.346Z,102353.53
2022-10-19T16:54:47.055Z,102347.69
2022-10-19T16:57:49.594Z,102361.88
2022-10-19T17:00:52.305Z,102359.81
2022-10-19T17:03:55.747Z,102364.94
2022-10-19T17:06:59.727Z,102355.69
2022-10-19T17:10:02.472Z,102363.09
2022-10-19T17:13:05.151Z,102363.78
2022-10-19T17:16:08.576Z,102362.16
2022-10-19T17:19:11.989Z,102362.78
2022-10-19T17:22:16.043Z,102368.56
2022-10-19T17:25:18.724Z,102373.00
2022-10-19T17:28:24.119Z,102377.06
2022-10-19T17:31:29.902Z,102374.72
2022-10-19T17:34:32.803Z,102373.03
2022-10-19T17:37:37.101Z,102378.13
2022-10-19T17:40:39.970Z,102381.09
2022-10-19T17:43:44.845Z,102380.50
2022-10-19T17:46:47.619Z,102378.38
2022-10-19T17:49:50.312Z,102379.69
2022-10-19T17:52:54.233Z,102375.03
2022-10-19T17:55:57.230Z,102383.06
2022-10-19T17:59:02.407Z,102375.69
2022-10-19T18:02:07.439Z,102383.28
2022-10-19T18:05:10.499Z,102389.22
2022-10-19T18:08:14.391Z,102389.63
2022-10-19T18:11:19.684Z,102390.91
2022-10-19T18:14:22.391Z,102390.22
2022-10-19T18:17:27.668Z,102396.53
2022-10-19T18:20:30.688Z,102387.91
2022-10-19T18:23:34.643Z,102388.97
2022-10-19T18:26:37.320Z,102394.25
2022-10-19T18:29:39.861Z,102396.97
2022-10-19T18:32:42.432Z,102399.28
2022-10-19T18:35:44.981Z,102392.72
2022-10-19T18:38:52.749Z,102389.38
2022-10-19T18:41:55.575Z,102396.31
2022-10-19T18:44:58.322Z,102399.66
2022-10-19T18:48:00.919Z,102390.81
2022-10-19T18:51:05.973Z,102397.97
2022-10-19T18:54:11.931Z,102394.63
2022-10-19T18:57:14.613Z,102392.06
2022-10-19T19:00:17.281Z,102382.53
2022-10-19T19:03:20.542Z,102386.75
2022-10-19T19:06:25.428Z,102386.75
2022-10-19T19:09:29.308Z,102378.09
2022-10-19T19:12:32.221Z,102378.09
2022-10-19T19:15:34.790Z,102384.78
2022-10-19T19:18:37.509Z,102385.81
2022-10-19T19:21:43.650Z,102388.13
2022-10-19T19:24:50.329Z,102374.03
2022-10-19T19:27:52.912Z,102384.72
2022-10-19T19:30:55.479Z,102383.25
2022-10-19T19:34:01.022Z,102385.09
2022-10-19T19:37:07.316Z,102392.44
2022-10-19T19:40:14.465Z,102370.16
2022-10-19T19:43:17.716Z,102372.44
2022-10-19T19:46:20.763Z,102372.44
2022-10-19T19:49:24.975Z,102378.13
2022-10-19T19:52:27.556Z,102377.56
2022-10-19T19:55:38.886Z,102375.88
2022-10-19T19:58:42.788Z,102372.09
2022-10-19T20:01:45.624Z,102382.00
2022-10-19T20:04:48.625Z,102379.47
2022-10-19T20:07:51.686Z,102394.81
2022-10-19T20:10:55.731Z,102383.38
2022-10-19T20:13:59.189Z,102386.06
2022-10-19T20:17:01.896Z,102385.63
2022-10-19T20:20:05.325Z,102390.06
2022-10-19T20:23:08.062Z,102397.47
2022-10-19T20:26:16.944Z,102397.91
2022-10-19T20:29:20.225Z,102395.81
2022-10-19T20:32:22.890Z,102396.22
2022-10-19T20:35:25.452Z,102398.31
2022-10-19T20:38:28.124Z,102398.94
2022-10-19T20:41:32.080Z,102409.47
2022-10-19T20:44:34.861Z,102405.84
2022-10-19T20:47:37.561Z,102408.56
2022-10-19T20:50:40.494Z,102404.34
2022-10-19T20:53:43.725Z,102409.81
2022-10-19T20:56:48.072Z,102416.72
2022-10-19T20:59:50.829Z,102407.56
2022-10-19T21:02:53.792Z,102409.66
2022-10-19T21:05:56.460Z,102402.72
2022-10-19T21:08:59.944Z,102408.31
2022-10-19T21:12:04.033Z,102406.84
2022-10-19T21:15:07.562Z,102412.50
2022-10-19T21:18:10.202Z,102406.81
2022-10-19T21:21:16.406Z,102411.88
2022-10-19T21:24:21.013Z,102408.94
2022-10-19T21:27:25.023Z,102399.91
2022-10-19T21:30:28.112Z,102402.84
2022-10-19T21:33:30.795Z,102410.09
2022-10-19T21:36:33.651Z,102410.59
2022-10-19T21:39:36.476Z,102395.59
2022-10-19T21:42:40.482Z,102387.59
2022-10-19T21:45:43.118Z,102394.00
2022-10-19T21:48:46.243Z,102397.56
2022-10-19T21:51:50.939Z,102387.91
2022-10-19T21:54:54.544Z,102391.56
2022-10-19T21:57:58.674Z,102397.25
2022-10-19T22:01:05.232Z,102392.00
2022-10-19T22:04:10.610Z,102386.31
2022-10-19T22:07:13.228Z,102385.28
2022-10-19T22:10:15.969Z,102385.69
2022-10-19T22:13:19.885Z,102370.34
2022-10-19T22:16:23.604Z,102359.97
2022-10-19T22:19:26.505Z,102373.84
2022-10-19T22:22:29.205Z,102366.31
2022-10-19T22:25:32.376Z,102367.19
2022-10-19T22:28:36.431Z,102363.59
2022-10-19T22:31:39.407Z,102354.91
2022-10-19T22:34:41.981Z,102357.22
2022-10-19T22:37:44.712Z,102345.66
2022-10-19T22:40:47.414Z,102339.34
2022-10-19T22:43:51.391Z,102342.63
2022-10-19T22:46:54.156Z,102342.44
2022-10-19T22:49:56.757Z,102343.88
2022-10-19T22:52:59.383Z,102352.28
2022-10-19T22:56:02.333Z,102336.72
2022-10-19T22:59:08.024Z,102350.19
2022-10-19T23:02:10.988Z,102337.34
2022-10-19T23:05:13.800Z,102345.72
2022-10-19T23:08:16.576Z,102331.44
2022-10-19T23:11:19.303Z,102337.34
2022-10-19T23:14:23.544Z,102335.19
2022-10-19T23:17:26.212Z,102332.00
2022-10-19T23:20:29.158Z,102342.69
2022-10-19T23:23:33.141Z,102342.91
2022-10-19T23:26:35.846Z,102334.91
2022-10-19T23:29:40.341Z,102345.84
2022-10-19T23:32:43.105Z,102353.34
2022-10-19T23:35:45.858Z,102348.06
2022-10-19T23:38:50.166Z,102347.78
2022-10-19T23:41:52.951Z,102346.09
2022-10-19T23:44:57.078Z,102341.88
2022-10-19T23:47:59.918Z,102352.56
2022-10-19T23:51:04.922Z,102341.00
2022-10-19T23:54:07.663Z,102351.06
2022-10-19T23:57:10.371Z,102352.28
